Time;durP1;ratioP1;P1;durP2;ratioP2;P2;SDS_P1;SDS_P2;PMS_P1;PMS_P2;Temp;Humidity;BMP_temperature;BMP_pressure;BME280_temperature;BME280_humidity;BME280_pressure;Samples;Min_cycle;Max_cycle;Signal;HPM_P1;HPM_P2
2023/01/29 00:01:06;;;;;;;5.57;5.07;;;7.70;50.90;;;;;;5031946;28;20448;-58
2023/01/29 00:03:32;;;;;;;6.23;5.30;;;7.60;51.00;;;;;;5032597;28;20472;-58
2023/01/29 00:05:58;;;;;;;8.97;8.07;;;7.70;51.10;;;;;;5032089;28;20778;-58
2023/01/29 00:08:24;;;;;;;6.83;5.67;;;7.70;50.90;;;;;;5032524;28;20424;-59
2023/01/29 00:10:49;;;;;;;5.80;5.30;;;7.80;50.50;;;;;;5032617;28;20427;-58
2023/01/29 00:13:15;;;;;;;7.17;5.33;;;7.80;50.70;;;;;;5029485;28;20481;-58
2023/01/29 00:15:40;;;;;;;7.07;5.47;;;7.80;50.70;;;;;;5025619;28;20308;-59
2023/01/29 00:18:06;;;;;;;6.97;6.27;;;7.80;50.70;;;;;;5032202;28;20584;-58
2023/01/29 00:20:32;;;;;;;5.83;5.27;;;7.80;50.80;;;;;;5032242;28;20200;-59
2023/01/29 00:22:58;;;;;;;5.77;5.33;;;7.80;50.90;;;;;;5032316;28;20196;-58
2023/01/29 00:25:24;;;;;;;6.37;5.50;;;7.80;50.80;;;;;;5030096;28;20428;-58
2023/01/29 00:27:50;;;;;;;5.83;5.23;;;7.80;50.70;;;;;;5032220;28;20446;-59
2023/01/29 00:30:18;;;;;;;5.83;5.33;;;7.80;50.60;;;;;;5032441;28;20193;-58
2023/01/29 00:32:44;;;;;;;6.27;5.67;;;7.80;50.70;;;;;;5031881;28;20475;-59
2023/01/29 00:35:10;;;;;;;6.17;5.57;;;7.90;50.90;;;;;;5031735;28;20514;-58
2023/01/29 00:37:36;;;;;;;6.47;5.20;;;7.80;50.90;;;;;;5031992;28;20420;-58
2023/01/29 00:40:03;;;;;;;6.00;5.30;;;7.80;50.90;;;;;;5031833;28;21078;-59
2023/01/29 00:45:13;;;;;;;6.63;5.83;;;7.80;50.80;;;;;;5031340;28;20423;-58
2023/01/29 00:47:39;;;;;;;6.17;5.13;;;7.80;50.90;;;;;;5031782;28;20432;-59
2023/01/29 00:50:08;;;;;;;7.50;5.60;;;7.80;51.10;;;;;;5031671;28;20412;-59
2023/01/29 00:52:35;;;;;;;5.97;5.37;;;7.80;51.10;;;;;;5029998;28;20193;-58
2023/01/29 00:55:03;;;;;;;5.67;5.13;;;7.80;51.10;;;;;;5031310;28;20478;-58
2023/01/29 00:57:31;;;;;;;6.40;5.80;;;7.80;51.10;;;;;;5031565;28;20416;-59
2023/01/29 00:59:57;;;;;;;5.60;5.10;;;7.70;51.20;;;;;;5031345;28;20487;-59
2023/01/29 01:05:16;;;;;;;6.83;5.37;;;7.80;51.30;;;;;;5031115;28;20196;-58
2023/01/29 01:07:52;;;;;;;9.60;6.10;;;7.80;51.20;;;;;;5031684;28;20419;-59
2023/01/29 01:10:24;;;;;;;6.47;5.20;;;7.80;51.20;;;;;;5031394;28;20989;-59
2023/01/29 01:12:57;;;;;;;5.50;5.00;;;7.70;51.20;;;;;;5031339;28;21262;-59
2023/01/29 01:15:26;;;;;;;6.13;5.30;;;7.70;51.30;;;;;;5022873;28;20444;-59
2023/01/29 01:17:54;;;;;;;5.43;4.93;;;7.70;51.30;;;;;;5031059;28;20772;-58
2023/01/29 01:20:19;;;;;;;5.87;5.27;;;7.70;51.10;;;;;;5029813;28;20420;-59
2023/01/29 01:22:45;;;;;;;5.67;5.17;;;7.70;51.10;;;;;;5031258;28;20527;-58
2023/01/29 01:25:10;;;;;;;6.27;5.67;;;7.70;51.20;;;;;;5030786;28;20631;-59
2023/01/29 01:27:40;;;;;;;6.50;5.80;;;7.70;51.10;;;;;;5030399;28;20193;-61
2023/01/29 01:30:12;;;;;;;6.60;5.37;;;7.60;51.30;;;;;;5031097;28;20189;-58
2023/01/29 01:32:38;;;;;;;6.40;5.57;;;7.60;51.40;;;;;;5030687;28;20874;-59
2023/01/29 01:35:05;;;;;;;6.10;5.30;;;7.50;51.40;;;;;;5030345;28;20438;-59
2023/01/29 01:37:30;;;;;;;6.00;5.40;;;7.50;51.40;;;;;;5031242;28;20786;-60
2023/01/29 01:39:57;;;;;;;7.00;5.80;;;7.50;51.50;;;;;;5030967;28;20480;-58
2023/01/29 01:42:31;;;;;;;6.23;5.50;;;7.50;51.50;;;;;;5030909;28;20189;-59
2023/01/29 01:45:05;;;;;;;7.47;6.73;;;7.40;51.60;;;;;;5030431;28;20458;-58
2023/01/29 01:47:45;;;;;;;7.23;6.10;;;7.40;51.80;;;;;;5029727;28;20451;-58
2023/01/29 01:50:23;;;;;;;8.30;5.57;;;7.40;51.70;;;;;;5030776;28;20947;-59
2023/01/29 01:52:51;;;;;;;8.80;6.17;;;7.40;51.60;;;;;;5031080;28;20432;-59
2023/01/29 01:55:21;;;;;;;6.33;5.40;;;7.40;51.50;;;;;;5030556;28;20843;-58
2023/01/29 01:57:51;;;;;;;8.20;6.23;;;7.40;51.40;;;;;;5030918;28;20515;-59
2023/01/29 02:00:19;;;;;;;7.63;6.97;;;7.40;51.50;;;;;;5030929;28;20806;-59
2023/01/29 02:11:10;;;;;;;6.60;5.93;;;7.20;51.80;;;;;;5030845;28;20435;-58
2023/01/29 02:13:36;;;;;;;6.70;6.10;;;7.10;52.00;;;;;;5023113;28;20433;-59
2023/01/29 02:16:01;;;;;;;7.00;5.40;;;7.10;52.10;;;;;;5027110;28;20424;-59
2023/01/29 02:18:27;;;;;;;8.90;6.50;;;7.10;52.10;;;;;;5030574;28;20265;-59
2023/01/29 02:21:11;;;;;;;7.40;6.70;;;7.10;51.90;;;;;;5030588;28;20641;-59
2023/01/29 02:26:17;;;;;;;9.73;6.17;;;7.00;51.90;;;;;;5030328;28;20456;-58
2023/01/29 02:29:21;;;;;;;9.07;6.20;;;7.00;52.00;;;;;;5030556;28;20259;-59
2023/01/29 02:31:52;;;;;;;7.40;5.97;;;7.10;51.80;;;;;;5030456;28;20605;-59
2023/01/29 02:34:26;;;;;;;7.03;5.87;;;7.10;51.80;;;;;;5030083;28;20424;-58
2023/01/29 02:36:57;;;;;;;7.77;6.30;;;7.10;51.80;;;;;;5030358;28;20545;-58
2023/01/29 02:39:52;;;;;;;6.93;6.23;;;7.10;51.70;;;;;;5032499;28;20509;-59
2023/01/29 02:42:31;;;;;;;9.60;6.57;;;7.10;51.50;;;;;;5034216;28;20787;-58
2023/01/29 02:45:14;;;;;;;7.87;6.70;;;7.00;51.40;;;;;;5033697;28;20978;-59
2023/01/29 02:48:00;;;;;;;6.83;6.13;;;7.00;51.40;;;;;;5034005;28;20424;-58
2023/01/29 02:50:37;;;;;;;7.17;6.20;;;7.00;51.30;;;;;;5034111;28;20482;-58
2023/01/29 02:53:25;;;;;;;9.03;6.47;;;7.10;51.30;;;;;;5034070;28;20501;-58
2023/01/29 02:56:02;;;;;;;7.10;5.87;;;7.00;51.30;;;;;;5033698;28;20444;-58
2023/01/29 02:58:39;;;;;;;8.43;6.37;;;6.90;51.70;;;;;;5033980;28;20472;-58
2023/01/29 03:01:23;;;;;;;6.37;5.77;;;7.00;51.70;;;;;;5033819;28;20423;-59
2023/01/29 03:03:54;;;;;;;6.37;5.77;;;7.00;51.50;;;;;;5034115;28;20424;-58
2023/01/29 03:06:27;;;;;;;6.03;5.33;;;7.00;51.40;;;;;;5031776;28;20447;-58
2023/01/29 03:09:00;;;;;;;6.10;5.33;;;7.00;51.30;;;;;;5033789;28;20420;-59
2023/01/29 03:11:32;;;;;;;7.47;6.23;;;7.10;51.20;;;;;;5033523;28;20435;-58
2023/01/29 03:17:28;;;;;;;5.73;5.13;;;7.00;51.30;;;;;;5030936;28;20891;-59
2023/01/29 03:19:55;;;;;;;5.53;4.83;;;7.00;51.30;;;;;;5031001;28;20945;-59
2023/01/29 03:22:22;;;;;;;6.47;5.87;;;7.00;51.20;;;;;;5021931;28;20441;-59
2023/01/29 03:33:50;;;;;;;6.87;6.17;;;6.90;51.50;;;;;;5031778;28;20970;-58
2023/01/29 03:36:44;;;;;;;6.40;5.70;;;6.90;51.40;;;;;;5033110;28;20428;-58
2023/01/29 03:39:11;;;;;;;7.20;5.50;;;7.00;51.30;;;;;;5020839;28;20531;-58
2023/01/29 03:41:58;;;;;;;7.70;5.40;;;7.00;51.20;;;;;;5033087;28;20435;-58
2023/01/29 03:44:49;;;;;;;8.10;5.50;;;7.10;51.30;;;;;;5032500;28;20428;-59
2023/01/29 03:47:46;;;;;;;6.50;5.30;;;7.00;51.00;;;;;;5031851;28;20489;-59
2023/01/29 03:50:39;;;;;;;6.63;5.97;;;7.10;51.00;;;;;;5032560;28;20454;-59
2023/01/29 03:53:31;;;;;;;8.03;6.07;;;7.10;50.90;;;;;;5032653;28;20439;-59
2023/01/29 03:56:06;;;;;;;6.10;5.50;;;7.10;50.90;;;;;;5029246;28;20452;-59
2023/01/29 03:58:41;;;;;;;7.87;6.07;;;7.00;51.00;;;;;;5031971;28;20856;-58
2023/01/29 04:01:15;;;;;;;9.10;5.67;;;6.90;51.10;;;;;;5032356;28;20419;-58
2023/01/29 04:03:49;;;;;;;6.63;5.33;;;6.80;51.20;;;;;;5032652;28;20969;-59
2023/01/29 04:06:22;;;;;;;6.20;5.63;;;6.80;51.20;;;;;;5032156;28;20416;-59
2023/01/29 04:09:15;;;;;;;6.33;5.73;;;6.90;51.20;;;;;;5032616;28;20448;-58
2023/01/29 04:11:47;;;;;;;7.00;5.40;;;7.00;51.20;;;;;;5032634;28;20527;-58
2023/01/29 04:14:13;;;;;;;5.70;5.17;;;7.00;51.10;;;;;;5023392;28;20433;-58
2023/01/29 04:16:45;;;;;;;6.40;5.77;;;7.00;51.10;;;;;;5032667;28;20586;-59
2023/01/29 04:19:11;;;;;;;7.00;6.30;;;7.00;51.10;;;;;;5032331;28;20644;-58
2023/01/29 04:21:37;;;;;;;5.93;5.33;;;7.00;51.10;;;;;;5032332;28;20431;-58
2023/01/29 04:24:05;;;;;;;7.20;5.90;;;7.00;51.10;;;;;;5032021;28;20427;-58
2023/01/29 04:26:36;;;;;;;6.70;5.50;;;7.00;51.10;;;;;;5030565;28;20916;-58
2023/01/29 04:29:14;;;;;;;6.77;6.13;;;7.10;51.10;;;;;;5032299;28;20439;-58
2023/01/29 04:31:59;;;;;;;6.47;5.40;;;7.00;51.00;;;;;;5032200;28;20479;-59
2023/01/29 04:34:28;;;;;;;6.83;5.47;;;7.10;50.90;;;;;;5031788;28;20455;-58
2023/01/29 04:37:21;;;;;;;9.33;5.53;;;7.00;50.80;;;;;;5031914;28;20774;-59
2023/01/29 04:40:10;;;;;;;7.37;6.50;;;7.00;50.90;;;;;;5032159;28;20497;-59
2023/01/29 04:42:40;;;;;;;6.57;5.97;;;7.00;50.80;;;;;;5032003;28;20440;-58
2023/01/29 04:45:09;;;;;;;7.10;5.30;;;7.10;50.80;;;;;;5031463;28;20424;-58
2023/01/29 04:48:12;;;;;;;6.33;5.53;;;7.10;50.80;;;;;;5032026;28;20467;-58
2023/01/29 04:50:40;;;;;;;7.13;6.43;;;7.00;50.80;;;;;;5030844;28;20515;-59
2023/01/29 04:53:24;;;;;;;6.60;5.70;;;7.00;50.90;;;;;;5030281;28;20444;-58
2023/01/29 04:55:57;;;;;;;7.50;6.77;;;7.00;50.90;;;;;;5031400;28;20439;-58
2023/01/29 04:58:36;;;;;;;7.70;6.17;;;7.00;50.90;;;;;;5031435;28;20479;-59
2023/01/29 05:01:05;;;;;;;7.83;5.57;;;7.00;50.80;;;;;;5030512;28;20444;-58
2023/01/29 05:03:32;;;;;;;6.27;5.67;;;7.00;50.80;;;;;;5031636;28;20783;-58
2023/01/29 05:06:00;;;;;;;6.37;5.77;;;7.00;50.70;;;;;;5031034;28;20436;-58
2023/01/29 05:08:29;;;;;;;9.40;6.30;;;7.10;50.80;;;;;;5031706;28;20497;-59
2023/01/29 05:10:57;;;;;;;7.00;6.20;;;7.00;50.80;;;;;;5031195;28;20443;-58
2023/01/29 05:13:25;;;;;;;6.97;5.80;;;7.00;50.70;;;;;;5027321;28;20433;-59
2023/01/29 05:15:54;;;;;;;6.90;6.20;;;7.00;50.80;;;;;;5026653;28;20434;-58
2023/01/29 05:18:20;;;;;;;9.13;5.90;;;7.00;50.70;;;;;;5031389;28;20487;-58
2023/01/29 05:20:46;;;;;;;9.03;7.33;;;7.00;50.60;;;;;;5029687;28;20431;-58
2023/01/29 05:23:20;;;;;;;8.90;7.00;;;6.90;50.50;;;;;;5031194;28;20189;-58
2023/01/29 05:25:48;;;;;;;6.80;6.10;;;6.90;50.60;;;;;;5031056;28;20439;-59
2023/01/29 05:28:16;;;;;;;8.00;6.27;;;6.90;50.70;;;;;;5031204;28;20424;-58
2023/01/29 05:30:44;;;;;;;6.73;6.13;;;7.00;50.80;;;;;;5030881;28;20471;-59
2023/01/29 05:33:18;;;;;;;6.80;6.00;;;6.90;50.60;;;;;;5031225;28;20997;-59
2023/01/29 05:35:45;;;;;;;8.13;6.53;;;6.90;50.80;;;;;;5030599;28;20809;-59
2023/01/29 05:38:10;;;;;;;7.30;6.30;;;6.90;50.80;;;;;;5030966;28;21018;-59
2023/01/29 05:40:36;;;;;;;9.33;6.37;;;7.00;50.90;;;;;;5031021;28;20470;-59
2023/01/29 05:43:03;;;;;;;6.57;5.87;;;7.00;50.90;;;;;;5030840;28;20351;-58
2023/01/29 05:45:29;;;;;;;6.97;6.27;;;7.00;51.00;;;;;;5028940;28;20987;-58
2023/01/29 05:47:58;;;;;;;7.13;6.40;;;7.00;50.90;;;;;;5030932;28;20523;-59
2023/01/29 05:50:25;;;;;;;6.80;6.10;;;7.00;50.90;;;;;;5030803;28;20424;-59
2023/01/29 05:53:01;;;;;;;6.40;5.80;;;7.00;50.90;;;;;;5030973;28;20434;-61
2023/01/29 05:55:30;;;;;;;6.77;5.70;;;7.00;50.80;;;;;;5030385;28;20431;-59
2023/01/29 05:57:56;;;;;;;8.83;6.60;;;6.90;50.70;;;;;;5030621;28;20424;-58
2023/01/29 06:00:22;;;;;;;9.90;5.97;;;6.90;51.00;;;;;;5031008;28;20486;-58
2023/01/29 06:02:48;;;;;;;6.57;5.80;;;6.80;51.10;;;;;;5030790;28;20197;-58
2023/01/29 06:05:14;;;;;;;7.20;6.10;;;6.80;51.10;;;;;;5030454;28;20217;-58
2023/01/29 06:07:43;;;;;;;10.03;6.40;;;6.90;51.00;;;;;;5030832;28;20471;-58
2023/01/29 06:10:14;;;;;;;9.67;6.30;;;6.90;50.90;;;;;;5030737;28;20181;-58
2023/01/29 06:12:40;;;;;;;6.63;5.83;;;6.90;50.90;;;;;;5030067;28;21324;-58
2023/01/29 06:15:06;;;;;;;6.63;5.93;;;6.80;51.00;;;;;;5025876;28;20424;-58
2023/01/29 06:17:31;;;;;;;6.97;6.27;;;6.80;51.00;;;;;;5034751;28;20431;-58
2023/01/29 06:19:57;;;;;;;7.00;5.70;;;6.70;51.00;;;;;;5034645;28;20508;-58
2023/01/29 06:22:22;;;;;;;7.20;6.50;;;6.70;51.30;;;;;;5034639;28;20562;-59
2023/01/29 06:24:48;;;;;;;7.63;6.17;;;6.70;51.40;;;;;;5034252;28;20197;-58
2023/01/29 06:27:14;;;;;;;8.30;7.50;;;6.70;51.30;;;;;;5034360;28;20185;-58
2023/01/29 06:29:39;;;;;;;10.17;6.93;;;6.80;51.30;;;;;;5034437;28;20201;-59
2023/01/29 06:32:05;;;;;;;9.30;7.00;;;6.80;51.10;;;;;;5034602;28;20233;-58
2023/01/29 06:34:30;;;;;;;7.53;5.93;;;6.80;51.10;;;;;;5033941;28;20192;-58
2023/01/29 06:36:56;;;;;;;6.83;6.23;;;6.90;51.10;;;;;;5034236;28;20711;-58
2023/01/29 06:39:21;;;;;;;9.10;7.30;;;6.80;50.90;;;;;;5032571;28;20329;-58
2023/01/29 06:41:47;;;;;;;7.07;6.10;;;6.70;51.00;;;;;;5034418;28;20585;-59
2023/01/29 06:44:13;;;;;;;7.93;6.40;;;6.70;51.20;;;;;;5033797;28;20239;-58
2023/01/29 06:46:38;;;;;;;6.10;5.47;;;6.70;51.40;;;;;;5034118;28;20185;-58
2023/01/29 06:49:04;;;;;;;8.73;6.00;;;6.60;51.50;;;;;;5034019;28;20679;-58
2023/01/29 06:51:29;;;;;;;6.93;6.03;;;6.60;51.60;;;;;;5034095;28;20204;-58
2023/01/29 06:53:55;;;;;;;7.90;6.07;;;6.70;51.60;;;;;;5033387;28;20197;-59
2023/01/29 06:56:21;;;;;;;8.17;6.13;;;6.70;51.60;;;;;;5033975;28;20202;-59
2023/01/29 06:58:47;;;;;;;8.37;5.63;;;6.70;51.40;;;;;;5034170;28;20307;-58
2023/01/29 07:01:13;;;;;;;6.97;6.03;;;6.70;51.40;;;;;;5033761;28;20843;-58
2023/01/29 07:03:40;;;;;;;7.40;6.03;;;6.80;51.30;;;;;;5033851;28;20182;-58
2023/01/29 07:06:07;;;;;;;8.33;6.90;;;6.70;51.20;;;;;;5031644;28;20185;-58
2023/01/29 07:08:35;;;;;;;8.50;6.77;;;6.70;51.10;;;;;;5033604;28;20519;-59
2023/01/29 07:11:01;;;;;;;7.57;6.10;;;6.80;51.20;;;;;;5032639;28;20906;-59
2023/01/29 07:13:27;;;;;;;6.80;6.10;;;6.80;51.10;;;;;;5028969;28;20452;-58
2023/01/29 07:15:53;;;;;;;9.30;7.87;;;6.80;51.10;;;;;;5029117;28;20563;-59
2023/01/29 07:18:18;;;;;;;7.13;6.43;;;6.80;50.90;;;;;;5033596;28;20250;-58
2023/01/29 07:20:44;;;;;;;8.10;6.90;;;6.80;50.90;;;;;;5033369;28;20204;-59
2023/01/29 07:23:11;;;;;;;7.37;6.63;;;6.70;51.00;;;;;;5033411;28;20584;-58
2023/01/29 07:25:37;;;;;;;7.33;6.00;;;6.70;51.20;;;;;;5031745;28;20603;-59
2023/01/29 07:28:03;;;;;;;8.20;6.67;;;6.80;51.20;;;;;;5033410;28;20511;-59
2023/01/29 07:30:29;;;;;;;8.50;6.77;;;6.80;51.10;;;;;;5033099;28;20444;-58
2023/01/29 07:32:55;;;;;;;7.30;6.30;;;6.90;51.00;;;;;;5031459;28;20432;-58
2023/01/29 07:35:21;;;;;;;7.50;6.70;;;6.90;50.90;;;;;;5032613;28;20193;-58
2023/01/29 07:37:49;;;;;;;7.90;6.70;;;6.90;51.00;;;;;;5033097;28;20611;-58
2023/01/29 07:40:15;;;;;;;8.67;6.80;;;6.90;51.20;;;;;;5033087;28;20204;-59
2023/01/29 07:42:42;;;;;;;7.40;6.17;;;6.80;51.30;;;;;;5033178;28;20424;-58
2023/01/29 07:45:09;;;;;;;7.10;6.33;;;6.80;51.30;;;;;;5032878;28;20567;-58
2023/01/29 07:47:35;;;;;;;7.47;6.63;;;6.80;51.30;;;;;;5033045;28;20452;-58
2023/01/29 07:50:00;;;;;;;6.57;5.97;;;6.70;51.60;;;;;;5032920;28;20459;-58
2023/01/29 07:52:29;;;;;;;7.27;6.40;;;6.70;51.70;;;;;;5032874;28;20482;-58
2023/01/29 07:54:54;;;;;;;8.47;6.07;;;6.80;51.60;;;;;;5032499;28;20614;-58
2023/01/29 07:57:20;;;;;;;7.13;6.43;;;6.90;51.40;;;;;;5032790;28;20515;-59
2023/01/29 07:59:46;;;;;;;6.90;6.20;;;6.90;51.20;;;;;;5031278;28;20316;-58
2023/01/29 08:02:12;;;;;;;8.00;5.90;;;7.00;51.10;;;;;;5032802;28;20194;-58
2023/01/29 08:04:37;;;;;;;7.23;5.97;;;7.00;51.00;;;;;;5032369;28;20196;-58
2023/01/29 08:07:03;;;;;;;7.37;6.20;;;7.00;50.90;;;;;;5032580;28;20450;-59
2023/01/29 08:09:30;;;;;;;8.93;7.30;;;7.00;50.80;;;;;;5032426;28;20190;-58
2023/01/29 08:11:55;;;;;;;7.67;6.50;;;7.00;50.80;;;;;;5032602;28;20847;-59
2023/01/29 08:14:22;;;;;;;7.13;6.03;;;7.00;50.80;;;;;;5023080;28;20530;-58
2023/01/29 08:16:48;;;;;;;8.60;7.23;;;7.00;51.00;;;;;;5032621;28;20185;-58
2023/01/29 08:19:13;;;;;;;14.90;9.77;;;7.00;50.80;;;;;;5032411;28;20875;-58
2023/01/29 08:21:39;;;;;;;10.63;8.77;;;6.90;50.80;;;;;;5032245;28;20439;-58
2023/01/29 08:24:05;;;;;;;8.90;7.03;;;6.90;50.90;;;;;;5031798;28;20212;-59
2023/01/29 08:26:30;;;;;;;7.67;6.87;;;6.80;50.60;;;;;;5030829;28;20190;-58
2023/01/29 08:28:56;;;;;;;8.80;5.90;;;6.90;50.60;;;;;;5032099;28;20544;-58
2023/01/29 08:31:22;;;;;;;7.60;5.80;;;7.00;50.50;;;;;;5031981;28;20245;-59
2023/01/29 08:33:48;;;;;;;8.27;6.17;;;7.00;50.40;;;;;;5031700;28;20193;-58
2023/01/29 08:36:14;;;;;;;7.63;6.30;;;7.10;50.30;;;;;;5031957;28;20428;-59
2023/01/29 08:38:40;;;;;;;9.97;7.10;;;7.00;50.30;;;;;;5032035;28;20846;-59
2023/01/29 08:41:07;;;;;;;8.57;7.20;;;7.10;50.30;;;;;;5032025;28;20647;-59
2023/01/29 08:43:35;;;;;;;7.50;6.77;;;7.10;50.10;;;;;;5031837;28;20794;-58
2023/01/29 08:46:02;;;;;;;8.20;6.47;;;7.10;50.00;;;;;;5031730;28;21085;-58
2023/01/29 08:48:29;;;;;;;7.60;6.60;;;7.10;50.00;;;;;;5031839;28;20431;-58
2023/01/29 08:50:57;;;;;;;8.53;6.77;;;7.10;50.10;;;;;;5031954;28;20427;-58
2023/01/29 08:53:23;;;;;;;7.23;6.40;;;7.00;49.90;;;;;;5030247;28;20420;-58
2023/01/29 08:55:49;;;;;;;8.27;6.57;;;7.00;50.20;;;;;;5031142;28;20442;-59
2023/01/29 08:58:14;;;;;;;8.73;6.70;;;7.10;50.20;;;;;;5031543;28;20463;-58
2023/01/29 09:00:40;;;;;;;9.73;6.80;;;7.00;50.30;;;;;;5031519;28;20201;-59
2023/01/29 09:03:06;;;;;;;7.17;6.43;;;7.00;50.20;;;;;;5031694;28;20247;-59
2023/01/29 09:05:33;;;;;;;8.83;6.97;;;7.10;50.10;;;;;;5031013;28;20197;-59
2023/01/29 09:07:59;;;;;;;8.03;7.20;;;7.20;50.10;;;;;;5031499;28;20447;-58
2023/01/29 09:10:25;;;;;;;9.00;7.30;;;7.30;50.00;;;;;;5031513;28;20488;-58
2023/01/29 09:12:51;;;;;;;8.10;7.00;;;7.30;49.70;;;;;;5031266;28;20201;-59
2023/01/29 09:15:17;;;;;;;7.07;6.00;;;7.40;49.70;;;;;;5022061;28;20927;-59
2023/01/29 09:17:42;;;;;;;9.60;7.73;;;7.40;49.60;;;;;;5031253;28;20700;-59
2023/01/29 09:20:09;;;;;;;8.10;7.10;;;7.50;49.70;;;;;;5029588;28;20574;-58
2023/01/29 09:22:35;;;;;;;9.27;8.30;;;7.50;49.40;;;;;;5029690;28;20605;-59
2023/01/29 09:25:01;;;;;;;10.10;7.80;;;7.60;49.50;;;;;;5030740;28;20440;-59
2023/01/29 09:27:27;;;;;;;8.40;7.50;;;7.60;49.90;;;;;;5031165;28;20486;-58
2023/01/29 09:29:52;;;;;;;8.63;7.70;;;7.60;49.10;;;;;;5031180;28;20490;-59
2023/01/29 09:32:18;;;;;;;8.00;7.30;;;7.60;49.00;;;;;;5031208;28;20760;-58
2023/01/29 09:34:43;;;;;;;8.90;6.90;;;7.70;49.10;;;;;;5030697;28;20231;-58
2023/01/29 09:37:09;;;;;;;9.57;7.10;;;7.70;49.20;;;;;;5031042;28;20201;-58
2023/01/29 09:39:35;;;;;;;9.47;7.10;;;7.70;49.20;;;;;;5030802;28;20224;-58
2023/01/29 09:42:19;;;;;;;7.50;6.70;;;7.80;49.30;;;;;;5030865;28;21099;-58
2023/01/29 09:45:23;;;;;;;7.37;6.67;;;7.80;49.20;;;;;;5030653;28;20521;-58
2023/01/29 09:47:49;;;;;;;9.83;7.97;;;7.70;49.10;;;;;;5030504;28;20494;-59
2023/01/29 09:50:42;;;;;;;8.73;7.70;;;7.70;49.10;;;;;;5031040;28;20427;-59
2023/01/29 09:53:20;;;;;;;7.93;7.20;;;7.70;49.10;;;;;;5030908;28;20433;-58
2023/01/29 09:55:52;;;;;;;9.30;7.80;;;7.80;49.20;;;;;;5030709;28;20459;-58
2023/01/29 09:58:32;;;;;;;9.03;6.20;;;7.80;49.10;;;;;;5030736;28;20510;-59
2023/01/29 10:00:57;;;;;;;7.97;6.73;;;7.80;48.60;;;;;;5031011;28;20445;-59
2023/01/29 10:03:40;;;;;;;9.40;8.40;;;7.50;48.30;;;;;;5030772;28;20923;-59
2023/01/29 10:06:39;;;;;;;9.00;8.00;;;7.40;48.80;;;;;;5030763;28;20203;-58
2023/01/29 10:09:19;;;;;;;8.83;7.50;;;7.60;49.00;;;;;;5030589;28;20870;-58
2023/01/29 10:12:00;;;;;;;9.20;7.40;;;7.70;48.60;;;;;;5030429;28;20439;-58
2023/01/29 10:14:53;;;;;;;8.17;7.37;;;7.80;48.00;;;;;;5021302;28;20947;-58
2023/01/29 10:17:25;;;;;;;7.70;7.00;;;8.00;48.00;;;;;;5029389;28;20444;-58
2023/01/29 10:19:56;;;;;;;8.40;6.73;;;8.10;47.70;;;;;;5030525;28;20487;-58
2023/01/29 10:22:42;;;;;;;8.13;7.33;;;8.10;46.70;;;;;;5030608;28;20432;-59
2023/01/29 10:25:12;;;;;;;8.50;7.60;;;8.10;46.70;;;;;;5030203;28;20430;-59
2023/01/29 10:27:50;;;;;;;8.40;7.57;;;8.20;46.50;;;;;;5030719;28;20753;-58
2023/01/29 10:30:44;;;;;;;7.83;7.03;;;8.20;46.50;;;;;;5030545;28;20424;-59
2023/01/29 10:33:22;;;;;;;8.97;8.07;;;8.20;46.20;;;;;;5030667;28;20889;-58
2023/01/29 10:35:56;;;;;;;8.53;7.60;;;8.20;46.00;;;;;;5030344;28;20424;-58
2023/01/29 10:38:54;;;;;;;7.83;7.03;;;8.20;46.10;;;;;;5030189;28;20477;-58
2023/01/29 10:41:47;;;;;;;8.13;7.33;;;8.20;46.10;;;;;;5030045;28;20962;-58
2023/01/29 10:44:18;;;;;;;10.97;9.80;;;8.30;46.00;;;;;;5030073;28;20510;-60
2023/01/29 10:47:10;;;;;;;12.40;9.90;;;8.40;46.00;;;;;;5030300;28;20435;-59
2023/01/29 10:50:04;;;;;;;8.57;7.67;;;8.40;45.50;;;;;;5030300;28;20497;-59
2023/01/29 10:52:50;;;;;;;9.20;8.13;;;8.30;45.60;;;;;;5030423;28;20915;-59
2023/01/29 10:55:19;;;;;;;7.80;7.00;;;8.20;45.90;;;;;;5028601;28;20428;-59
2023/01/29 10:58:14;;;;;;;7.73;7.03;;;8.10;45.90;;;;;;5030409;28;20420;-59
2023/01/29 11:00:40;;;;;;;8.80;7.80;;;8.10;46.30;;;;;;5033045;28;20463;-59
2023/01/29 11:03:17;;;;;;;8.57;7.50;;;8.20;46.20;;;;;;5033809;28;20423;-59
2023/01/29 11:06:10;;;;;;;9.37;7.67;;;8.30;46.20;;;;;;5031947;28;20779;-59
2023/01/29 11:08:56;;;;;;;7.90;7.10;;;8.40;46.20;;;;;;5020157;28;20468;-58
2023/01/29 11:11:34;;;;;;;11.47;7.20;;;8.40;46.10;;;;;;5022279;28;20444;-59
2023/01/29 11:14:07;;;;;;;11.10;8.47;;;8.40;46.40;;;;;;5024297;28;20463;-58
2023/01/29 11:16:45;;;;;;;8.33;6.90;;;8.40;45.90;;;;;;5033654;28;20438;-59
2023/01/29 11:19:11;;;;;;;9.77;8.77;;;8.50;45.80;;;;;;5033435;28;20483;-59
2023/01/29 11:21:57;;;;;;;9.83;8.27;;;8.60;45.90;;;;;;5033597;28;20946;-59
2023/01/29 11:24:23;;;;;;;8.53;7.70;;;8.70;45.80;;;;;;5033018;28;20664;-58
2023/01/29 11:26:51;;;;;;;8.43;7.53;;;8.70;45.60;;;;;;5033495;28;20428;-59
2023/01/29 11:29:29;;;;;;;8.30;7.17;;;8.70;45.40;;;;;;5033425;28;20919;-59
2023/01/29 11:31:57;;;;;;;9.07;8.17;;;8.90;45.30;;;;;;5031733;28;20554;-58
2023/01/29 11:34:24;;;;;;;8.93;7.83;;;8.90;44.90;;;;;;5032990;28;20455;-58
2023/01/29 11:37:13;;;;;;;8.87;8.00;;;8.70;44.90;;;;;;5033277;28;20773;-58
2023/01/29 11:39:43;;;;;;;8.63;7.83;;;8.70;45.20;;;;;;5033345;28;20994;-59
2023/01/29 11:42:21;;;;;;;9.80;8.80;;;8.60;45.00;;;;;;5033224;28;20428;-59
2023/01/29 11:44:47;;;;;;;10.10;7.80;;;8.70;45.10;;;;;;5033016;28;20467;-58
2023/01/29 11:47:15;;;;;;;9.33;8.10;;;8.80;45.00;;;;;;5033048;28;20896;-59
2023/01/29 11:49:50;;;;;;;9.30;8.40;;;8.80;44.80;;;;;;5033224;28;20193;-59
2023/01/29 11:52:20;;;;;;;11.40;9.47;;;8.90;44.90;;;;;;5033086;28;20434;-59
2023/01/29 11:54:51;;;;;;;9.40;8.40;;;9.00;44.70;;;;;;5032660;28;20424;-59
2023/01/29 11:57:33;;;;;;;10.30;8.77;;;8.90;44.10;;;;;;5032892;28;20435;-59
2023/01/29 12:00:03;;;;;;;11.43;10.23;;;8.90;44.60;;;;;;5031105;28;20482;-59
2023/01/29 12:02:36;;;;;;;11.13;7.53;;;8.90;44.70;;;;;;5032729;28;20778;-59
2023/01/29 12:05:14;;;;;;;9.57;8.67;;;8.80;44.80;;;;;;5032196;28;21677;-58
2023/01/29 12:07:42;;;;;;;9.93;8.87;;;8.70;45.20;;;;;;5032571;28;20432;-59
2023/01/29 12:10:28;;;;;;;10.97;8.73;;;8.60;45.10;;;;;;5032158;28;20427;-59
2023/01/29 12:13:24;;;;;;;10.73;8.53;;;8.70;45.10;;;;;;5032452;28;20424;-59
2023/01/29 12:16:19;;;;;;;9.60;8.60;;;8.80;44.90;;;;;;5028249;28;20781;-59
2023/01/29 12:19:18;;;;;;;11.30;8.70;;;8.60;44.90;;;;;;5032449;28;20555;-59
2023/01/29 12:21:52;;;;;;;10.30;9.17;;;8.50;45.30;;;;;;5031761;28;20444;-58
2023/01/29 12:24:29;;;;;;;9.30;8.40;;;8.40;45.40;;;;;;5032042;28;20473;-59
2023/01/29 12:27:20;;;;;;;9.70;8.73;;;8.60;45.60;;;;;;5030562;28;20431;-59
2023/01/29 12:29:56;;;;;;;10.70;9.17;;;8.80;45.60;;;;;;5031978;28;20787;-59
2023/01/29 12:32:33;;;;;;;10.53;9.30;;;8.90;45.30;;;;;;5031887;28;20472;-59
2023/01/29 12:35:24;;;;;;;9.47;8.33;;;9.10;44.80;;;;;;5031711;28;20448;-59
2023/01/29 12:38:04;;;;;;;9.20;8.30;;;9.20;44.50;;;;;;5032187;28;20428;-59
2023/01/29 12:40:45;;;;;;;10.20;8.90;;;9.10;44.00;;;;;;5031925;28;21001;-59
2023/01/29 12:43:23;;;;;;;12.23;10.03;;;8.90;45.10;;;;;;5032115;28;20507;-59
2023/01/29 12:45:54;;;;;;;12.53;9.83;;;9.00;45.40;;;;;;5032193;28;20451;-59
2023/01/29 12:48:36;;;;;;;9.93;8.93;;;9.10;45.00;;;;;;5031967;28;20431;-59
2023/01/29 12:51:10;;;;;;;11.57;9.70;;;9.20;45.10;;;;;;5031796;28;20534;-59
2023/01/29 12:53:55;;;;;;;10.27;9.13;;;9.40;44.90;;;;;;5029783;28;20464;-58
2023/01/29 12:56:38;;;;;;;11.07;9.57;;;9.50;44.40;;;;;;5031670;28;20447;-59
2023/01/29 12:59:27;;;;;;;10.80;9.07;;;9.50;44.20;;;;;;5031808;28;20560;-59
2023/01/29 13:01:57;;;;;;;9.50;8.57;;;9.60;44.50;;;;;;5031575;28;20456;-59
2023/01/29 13:04:40;;;;;;;9.97;9.00;;;9.70;44.80;;;;;;5031160;28;20518;-59
2023/01/29 13:07:14;;;;;;;11.23;9.37;;;9.70;43.60;;;;;;5031487;28;20444;-59
2023/01/29 13:09:44;;;;;;;9.10;8.20;;;9.70;43.40;;;;;;5031526;28;20452;-59
2023/01/29 13:12:14;;;;;;;11.63;8.67;;;9.70;43.40;;;;;;5031580;28;20483;-59
2023/01/29 13:14:49;;;;;;;10.03;9.03;;;9.80;44.30;;;;;;5022188;28;20451;-59
2023/01/29 13:17:36;;;;;;;11.80;9.77;;;9.80;43.50;;;;;;5031575;28;20427;-59
2023/01/29 13:20:19;;;;;;;10.33;9.27;;;9.70;43.70;;;;;;5029758;28;20515;-59
2023/01/29 13:22:46;;;;;;;9.63;8.63;;;9.70;43.70;;;;;;5030622;28;20429;-59
2023/01/29 13:25:17;;;;;;;9.50;8.40;;;9.80;43.70;;;;;;5030960;28;20424;-59
2023/01/29 13:27:46;;;;;;;10.60;9.43;;;9.80;43.90;;;;;;5031222;28;20503;-59
2023/01/29 13:30:27;;;;;;;9.47;8.50;;;9.90;43.70;;;;;;5031441;28;20782;-59
2023/01/29 13:32:54;;;;;;;9.30;8.40;;;10.00;42.60;;;;;;5030875;28;20455;-59
2023/01/29 13:35:22;;;;;;;10.20;9.10;;;9.40;43.20;;;;;;5030646;28;20428;-59
2023/01/29 13:37:53;;;;;;;9.53;8.63;;;9.50;44.00;;;;;;5031248;28;20438;-59
2023/01/29 13:40:25;;;;;;;10.30;9.20;;;9.70;43.80;;;;;;5031192;28;20483;-59
2023/01/29 13:42:53;;;;;;;11.63;9.90;;;9.90;43.80;;;;;;5031044;28;20531;-59
2023/01/29 13:45:40;;;;;;;10.47;9.17;;;9.90;43.80;;;;;;5029091;28;20455;-59
2023/01/29 13:48:28;;;;;;;13.13;9.13;;;10.00;42.70;;;;;;5030952;28;20479;-59
2023/01/29 13:50:59;;;;;;;13.00;10.10;;;10.10;43.10;;;;;;5031016;28;20439;-59